sensor_id;sensor_type;location;lat;lon;timestamp;P1;durP1;ratioP1;P2;durP2;ratioP2
22298;SDS011;11317;51.072;17.036;2024-03-17T00:01:55;3.95;;;1.33;;
22298;SDS011;11317;51.072;17.036;2024-03-17T00:04:21;3.53;;;1.50;;
22298;SDS011;11317;51.072;17.036;2024-03-17T00:06:47;3.50;;;1.77;;
22298;SDS011;11317;51.072;17.036;2024-03-17T00:09:13;5.22;;;1.42;;
22298;SDS011;11317;51.072;17.036;2024-03-17T00:11:41;3.65;;;1.65;;
22298;SDS011;11317;51.072;17.036;2024-03-17T00:14:07;5.18;;;1.83;;
22298;SDS011;11317;51.072;17.036;2024-03-17T00:16:34;3.95;;;1.55;;
22298;SDS011;11317;51.072;17.036;2024-03-17T00:19:00;5.65;;;1.90;;
22298;SDS011;11317;51.072;17.036;2024-03-17T00:21:26;2.92;;;1.63;;
22298;SDS011;11317;51.072;17.036;2024-03-17T00:23:52;6.55;;;2.00;;
22298;SDS011;11317;51.072;17.036;2024-03-17T00:26:19;2.30;;;1.20;;
22298;SDS011;11317;51.072;17.036;2024-03-17T00:28:46;3.25;;;1.60;;
22298;SDS011;11317;51.072;17.036;2024-03-17T00:31:13;2.72;;;1.40;;
22298;SDS011;11317;51.072;17.036;2024-03-17T00:33:42;5.03;;;1.77;;
22298;SDS011;11317;51.072;17.036;2024-03-17T00:36:09;2.85;;;1.83;;
22298;SDS011;11317;51.072;17.036;2024-03-17T00:38:35;3.35;;;1.67;;
22298;SDS011;11317;51.072;17.036;2024-03-17T00:41:04;3.17;;;1.73;;
22298;SDS011;11317;51.072;17.036;2024-03-17T00:43:31;3.83;;;1.95;;
22298;SDS011;11317;51.072;17.036;2024-03-17T00:45:57;3.67;;;1.70;;
22298;SDS011;11317;51.072;17.036;2024-03-17T00:48:24;5.35;;;2.03;;
22298;SDS011;11317;51.072;17.036;2024-03-17T00:50:56;2.10;;;1.67;;
22298;SDS011;11317;51.072;17.036;2024-03-17T00:53:23;2.80;;;1.40;;
22298;SDS011;11317;51.072;17.036;2024-03-17T00:55:52;4.90;;;1.75;;
22298;SDS011;11317;51.072;17.036;2024-03-17T00:58:20;9.52;;;2.00;;
22298;SDS011;11317;51.072;17.036;2024-03-17T01:00:46;5.00;;;1.67;;
22298;SDS011;11317;51.072;17.036;2024-03-17T01:03:18;2.20;;;1.58;;
22298;SDS011;11317;51.072;17.036;2024-03-17T01:05:44;4.13;;;1.92;;
22298;SDS011;11317;51.072;17.036;2024-03-17T01:08:12;2.60;;;1.85;;
22298;SDS011;11317;51.072;17.036;2024-03-17T01:10:42;2.67;;;1.90;;
22298;SDS011;11317;51.072;17.036;2024-03-17T01:13:09;2.83;;;1.65;;
22298;SDS011;11317;51.072;17.036;2024-03-17T01:15:38;6.55;;;2.10;;
22298;SDS011;11317;51.072;17.036;2024-03-17T01:18:04;5.93;;;2.03;;
22298;SDS011;11317;51.072;17.036;2024-03-17T01:20:31;4.00;;;1.95;;
22298;SDS011;11317;51.072;17.036;2024-03-17T01:22:58;2.33;;;1.75;;
22298;SDS011;11317;51.072;17.036;2024-03-17T01:25:24;4.50;;;1.83;;
22298;SDS011;11317;51.072;17.036;2024-03-17T01:27:54;3.70;;;1.83;;
22298;SDS011;11317;51.072;17.036;2024-03-17T01:30:20;6.78;;;1.75;;
22298;SDS011;11317;51.072;17.036;2024-03-17T01:32:46;10.40;;;2.00;;
22298;SDS011;11317;51.072;17.036;2024-03-17T01:35:12;5.75;;;2.10;;
22298;SDS011;11317;51.072;17.036;2024-03-17T01:37:39;4.50;;;1.60;;
22298;SDS011;11317;51.072;17.036;2024-03-17T01:40:05;4.68;;;1.80;;
22298;SDS011;11317;51.072;17.036;2024-03-17T01:42:38;7.40;;;1.88;;
22298;SDS011;11317;51.072;17.036;2024-03-17T01:47:46;4.50;;;2.15;;
22298;SDS011;11317;51.072;17.036;2024-03-17T01:50:11;2.63;;;1.80;;
22298;SDS011;11317;51.072;17.036;2024-03-17T01:52:38;4.40;;;2.03;;
22298;SDS011;11317;51.072;17.036;2024-03-17T01:55:05;5.15;;;1.60;;
22298;SDS011;11317;51.072;17.036;2024-03-17T01:57:32;4.82;;;2.28;;
22298;SDS011;11317;51.072;17.036;2024-03-17T01:59:58;6.78;;;1.52;;
22298;SDS011;11317;51.072;17.036;2024-03-17T02:02:25;7.95;;;2.28;;
22298;SDS011;11317;51.072;17.036;2024-03-17T02:04:51;3.28;;;1.60;;
22298;SDS011;11317;51.072;17.036;2024-03-17T02:07:18;6.03;;;1.70;;
22298;SDS011;11317;51.072;17.036;2024-03-17T02:09:43;2.70;;;1.70;;
22298;SDS011;11317;51.072;17.036;2024-03-17T02:12:09;7.20;;;2.42;;
22298;SDS011;11317;51.072;17.036;2024-03-17T02:14:37;3.33;;;1.58;;
22298;SDS011;11317;51.072;17.036;2024-03-17T02:17:03;4.03;;;2.13;;
22298;SDS011;11317;51.072;17.036;2024-03-17T02:19:29;6.80;;;1.98;;
22298;SDS011;11317;51.072;17.036;2024-03-17T02:21:55;3.78;;;2.17;;
22298;SDS011;11317;51.072;17.036;2024-03-17T02:24:21;2.92;;;1.65;;
22298;SDS011;11317;51.072;17.036;2024-03-17T02:26:47;3.88;;;1.92;;
22298;SDS011;11317;51.072;17.036;2024-03-17T02:29:13;3.10;;;2.20;;
22298;SDS011;11317;51.072;17.036;2024-03-17T02:31:40;5.65;;;2.05;;
22298;SDS011;11317;51.072;17.036;2024-03-17T02:34:06;4.40;;;2.70;;
22298;SDS011;11317;51.072;17.036;2024-03-17T02:36:32;5.95;;;1.85;;
22298;SDS011;11317;51.072;17.036;2024-03-17T02:38:58;3.22;;;2.05;;
22298;SDS011;11317;51.072;17.036;2024-03-17T02:41:43;4.95;;;2.28;;
22298;SDS011;11317;51.072;17.036;2024-03-17T02:44:10;3.13;;;2.05;;
22298;SDS011;11317;51.072;17.036;2024-03-17T02:46:36;4.10;;;2.25;;
22298;SDS011;11317;51.072;17.036;2024-03-17T02:49:03;4.63;;;2.17;;
22298;SDS011;11317;51.072;17.036;2024-03-17T02:51:29;10.15;;;2.90;;
22298;SDS011;11317;51.072;17.036;2024-03-17T02:53:55;6.13;;;3.42;;
22298;SDS011;11317;51.072;17.036;2024-03-17T02:56:24;9.93;;;3.35;;
22298;SDS011;11317;51.072;17.036;2024-03-17T02:58:51;6.93;;;3.65;;
22298;SDS011;11317;51.072;17.036;2024-03-17T03:01:17;4.38;;;2.88;;
22298;SDS011;11317;51.072;17.036;2024-03-17T03:03:44;8.90;;;3.33;;
22298;SDS011;11317;51.072;17.036;2024-03-17T03:06:10;4.50;;;2.78;;
22298;SDS011;11317;51.072;17.036;2024-03-17T03:08:38;6.28;;;2.35;;
22298;SDS011;11317;51.072;17.036;2024-03-17T03:11:09;12.07;;;2.72;;
22298;SDS011;11317;51.072;17.036;2024-03-17T03:13:40;3.95;;;2.42;;
22298;SDS011;11317;51.072;17.036;2024-03-17T03:16:07;6.15;;;2.70;;
22298;SDS011;11317;51.072;17.036;2024-03-17T03:18:34;4.15;;;2.50;;
22298;SDS011;11317;51.072;17.036;2024-03-17T03:21:01;4.85;;;2.50;;
22298;SDS011;11317;51.072;17.036;2024-03-17T03:23:27;6.20;;;2.22;;
22298;SDS011;11317;51.072;17.036;2024-03-17T03:25:57;5.35;;;2.38;;
22298;SDS011;11317;51.072;17.036;2024-03-17T03:28:23;5.18;;;2.30;;
22298;SDS011;11317;51.072;17.036;2024-03-17T03:30:50;9.63;;;2.42;;
22298;SDS011;11317;51.072;17.036;2024-03-17T03:33:19;4.50;;;1.77;;
22298;SDS011;11317;51.072;17.036;2024-03-17T03:35:45;5.93;;;2.13;;
22298;SDS011;11317;51.072;17.036;2024-03-17T03:38:12;11.35;;;2.08;;
22298;SDS011;11317;51.072;17.036;2024-03-17T03:40:41;3.97;;;1.92;;
22298;SDS011;11317;51.072;17.036;2024-03-17T03:43:08;8.65;;;2.10;;
22298;SDS011;11317;51.072;17.036;2024-03-17T03:45:34;5.38;;;2.28;;
22298;SDS011;11317;51.072;17.036;2024-03-17T03:48:01;5.03;;;2.13;;
22298;SDS011;11317;51.072;17.036;2024-03-17T03:50:30;3.15;;;1.75;;
22298;SDS011;11317;51.072;17.036;2024-03-17T03:52:56;3.47;;;2.13;;
22298;SDS011;11317;51.072;17.036;2024-03-17T03:55:23;6.72;;;2.05;;
22298;SDS011;11317;51.072;17.036;2024-03-17T03:57:49;4.30;;;2.13;;
22298;SDS011;11317;51.072;17.036;2024-03-17T04:00:17;3.92;;;1.77;;
22298;SDS011;11317;51.072;17.036;2024-03-17T04:02:47;5.50;;;1.90;;
22298;SDS011;11317;51.072;17.036;2024-03-17T04:05:20;5.00;;;1.92;;
22298;SDS011;11317;51.072;17.036;2024-03-17T04:07:46;8.88;;;1.88;;
22298;SDS011;11317;51.072;17.036;2024-03-17T04:10:14;4.22;;;1.77;;
22298;SDS011;11317;51.072;17.036;2024-03-17T04:12:41;4.53;;;1.45;;
22298;SDS011;11317;51.072;17.036;2024-03-17T04:15:07;4.10;;;1.48;;
22298;SDS011;11317;51.072;17.036;2024-03-17T04:17:35;4.00;;;2.33;;
22298;SDS011;11317;51.072;17.036;2024-03-17T04:20:04;2.70;;;1.60;;
22298;SDS011;11317;51.072;17.036;2024-03-17T04:22:33;6.05;;;1.55;;
22298;SDS011;11317;51.072;17.036;2024-03-17T04:24:59;4.35;;;1.90;;
22298;SDS011;11317;51.072;17.036;2024-03-17T04:27:26;3.72;;;1.98;;
22298;SDS011;11317;51.072;17.036;2024-03-17T04:29:53;2.22;;;1.85;;
22298;SDS011;11317;51.072;17.036;2024-03-17T04:32:20;4.78;;;2.13;;
22298;SDS011;11317;51.072;17.036;2024-03-17T04:34:47;4.63;;;1.65;;
22298;SDS011;11317;51.072;17.036;2024-03-17T04:37:13;5.88;;;1.85;;
22298;SDS011;11317;51.072;17.036;2024-03-17T04:39:40;7.40;;;1.70;;
22298;SDS011;11317;51.072;17.036;2024-03-17T04:42:08;5.80;;;1.80;;
22298;SDS011;11317;51.072;17.036;2024-03-17T04:44:34;5.57;;;2.20;;
22298;SDS011;11317;51.072;17.036;2024-03-17T04:47:01;3.70;;;1.73;;
22298;SDS011;11317;51.072;17.036;2024-03-17T04:49:31;3.88;;;1.90;;
22298;SDS011;11317;51.072;17.036;2024-03-17T04:51:58;5.10;;;1.38;;
22298;SDS011;11317;51.072;17.036;2024-03-17T04:54:24;2.22;;;1.38;;
22298;SDS011;11317;51.072;17.036;2024-03-17T04:56:50;4.68;;;1.90;;
22298;SDS011;11317;51.072;17.036;2024-03-17T04:59:16;3.78;;;2.28;;
22298;SDS011;11317;51.072;17.036;2024-03-17T05:01:43;3.22;;;1.40;;
22298;SDS011;11317;51.072;17.036;2024-03-17T05:04:09;4.15;;;1.65;;
22298;SDS011;11317;51.072;17.036;2024-03-17T05:06:35;2.10;;;1.17;;
22298;SDS011;11317;51.072;17.036;2024-03-17T05:09:01;2.53;;;1.35;;
22298;SDS011;11317;51.072;17.036;2024-03-17T05:11:29;2.50;;;1.27;;
22298;SDS011;11317;51.072;17.036;2024-03-17T05:13:56;8.70;;;2.00;;
22298;SDS011;11317;51.072;17.036;2024-03-17T05:16:23;2.22;;;1.70;;
22298;SDS011;11317;51.072;17.036;2024-03-17T05:18:49;2.70;;;1.85;;
22298;SDS011;11317;51.072;17.036;2024-03-17T05:21:16;2.13;;;1.50;;
22298;SDS011;11317;51.072;17.036;2024-03-17T05:23:42;7.10;;;1.73;;
22298;SDS011;11317;51.072;17.036;2024-03-17T05:26:09;3.13;;;1.65;;
22298;SDS011;11317;51.072;17.036;2024-03-17T05:28:35;3.15;;;1.52;;
22298;SDS011;11317;51.072;17.036;2024-03-17T05:31:01;11.77;;;2.10;;
22298;SDS011;11317;51.072;17.036;2024-03-17T05:33:27;3.03;;;1.92;;
22298;SDS011;11317;51.072;17.036;2024-03-17T05:35:54;4.47;;;1.20;;
22298;SDS011;11317;51.072;17.036;2024-03-17T05:38:22;4.13;;;1.83;;
22298;SDS011;11317;51.072;17.036;2024-03-17T05:40:55;3.97;;;1.75;;
22298;SDS011;11317;51.072;17.036;2024-03-17T05:43:25;1.83;;;1.30;;
22298;SDS011;11317;51.072;17.036;2024-03-17T05:46:01;4.07;;;1.80;;
22298;SDS011;11317;51.072;17.036;2024-03-17T05:48:28;8.05;;;1.92;;
22298;SDS011;11317;51.072;17.036;2024-03-17T05:50:55;7.82;;;1.70;;
22298;SDS011;11317;51.072;17.036;2024-03-17T05:53:21;4.10;;;1.33;;
22298;SDS011;11317;51.072;17.036;2024-03-17T05:55:49;10.30;;;1.20;;
22298;SDS011;11317;51.072;17.036;2024-03-17T05:58:15;3.45;;;1.38;;
22298;SDS011;11317;51.072;17.036;2024-03-17T06:00:42;4.93;;;1.15;;
22298;SDS011;11317;51.072;17.036;2024-03-17T06:03:09;1.88;;;1.23;;
22298;SDS011;11317;51.072;17.036;2024-03-17T06:05:36;4.45;;;1.42;;
22298;SDS011;11317;51.072;17.036;2024-03-17T06:08:03;9.98;;;1.42;;
22298;SDS011;11317;51.072;17.036;2024-03-17T06:10:31;5.40;;;1.50;;
22298;SDS011;11317;51.072;17.036;2024-03-17T06:12:58;6.60;;;1.55;;
22298;SDS011;11317;51.072;17.036;2024-03-17T06:15:24;3.58;;;1.10;;
22298;SDS011;11317;51.072;17.036;2024-03-17T06:17:51;4.78;;;1.20;;
22298;SDS011;11317;51.072;17.036;2024-03-17T06:20:18;1.60;;;0.93;;
22298;SDS011;11317;51.072;17.036;2024-03-17T06:22:52;10.25;;;1.75;;
22298;SDS011;11317;51.072;17.036;2024-03-17T06:25:18;9.07;;;1.65;;
22298;SDS011;11317;51.072;17.036;2024-03-17T06:27:44;3.63;;;1.17;;
22298;SDS011;11317;51.072;17.036;2024-03-17T06:30:11;6.85;;;1.27;;
22298;SDS011;11317;51.072;17.036;2024-03-17T06:32:42;4.18;;;1.40;;
22298;SDS011;11317;51.072;17.036;2024-03-17T06:35:12;6.35;;;1.08;;
22298;SDS011;11317;51.072;17.036;2024-03-17T06:37:40;4.60;;;1.30;;
22298;SDS011;11317;51.072;17.036;2024-03-17T06:40:08;4.32;;;1.13;;
22298;SDS011;11317;51.072;17.036;2024-03-17T06:42:39;1.60;;;1.08;;
22298;SDS011;11317;51.072;17.036;2024-03-17T06:45:05;3.47;;;1.00;;
22298;SDS011;11317;51.072;17.036;2024-03-17T06:47:37;4.85;;;1.02;;
22298;SDS011;11317;51.072;17.036;2024-03-17T06:50:04;2.70;;;1.23;;
22298;SDS011;11317;51.072;17.036;2024-03-17T06:52:30;7.32;;;1.02;;
22298;SDS011;11317;51.072;17.036;2024-03-17T06:54:57;5.25;;;1.50;;
22298;SDS011;11317;51.072;17.036;2024-03-17T06:57:23;1.00;;;0.80;;
22298;SDS011;11317;51.072;17.036;2024-03-17T06:59:49;6.82;;;1.42;;
22298;SDS011;11317;51.072;17.036;2024-03-17T07:02:16;4.72;;;1.27;;
22298;SDS011;11317;51.072;17.036;2024-03-17T07:04:46;2.10;;;0.93;;
22298;SDS011;11317;51.072;17.036;2024-03-17T07:07:13;3.08;;;1.17;;
22298;SDS011;11317;51.072;17.036;2024-03-17T07:09:42;1.50;;;0.90;;
22298;SDS011;11317;51.072;17.036;2024-03-17T07:12:08;6.25;;;1.08;;
22298;SDS011;11317;51.072;17.036;2024-03-17T07:14:36;4.95;;;1.08;;
22298;SDS011;11317;51.072;17.036;2024-03-17T07:17:02;4.20;;;1.50;;
22298;SDS011;11317;51.072;17.036;2024-03-17T07:19:29;3.58;;;0.90;;
22298;SDS011;11317;51.072;17.036;2024-03-17T07:21:56;6.10;;;1.10;;
22298;SDS011;11317;51.072;17.036;2024-03-17T07:24:22;1.58;;;0.90;;
22298;SDS011;11317;51.072;17.036;2024-03-17T07:26:49;3.20;;;1.08;;
22298;SDS011;11317;51.072;17.036;2024-03-17T07:29:15;3.60;;;1.27;;
22298;SDS011;11317;51.072;17.036;2024-03-17T07:31:41;2.95;;;1.23;;
22298;SDS011;11317;51.072;17.036;2024-03-17T07:34:07;3.25;;;0.88;;
22298;SDS011;11317;51.072;17.036;2024-03-17T07:36:34;2.40;;;1.17;;
22298;SDS011;11317;51.072;17.036;2024-03-17T07:39:01;6.68;;;1.13;;
22298;SDS011;11317;51.072;17.036;2024-03-17T07:41:27;3.92;;;0.85;;
22298;SDS011;11317;51.072;17.036;2024-03-17T07:43:53;5.55;;;1.50;;
22298;SDS011;11317;51.072;17.036;2024-03-17T07:46:19;4.13;;;1.17;;
22298;SDS011;11317;51.072;17.036;2024-03-17T07:48:45;4.15;;;1.02;;
22298;SDS011;11317;51.072;17.036;2024-03-17T07:51:13;5.32;;;0.90;;
22298;SDS011;11317;51.072;17.036;2024-03-17T07:53:40;2.10;;;1.02;;
22298;SDS011;11317;51.072;17.036;2024-03-17T07:56:08;6.50;;;1.23;;
22298;SDS011;11317;51.072;17.036;2024-03-17T07:58:34;3.90;;;1.10;;
22298;SDS011;11317;51.072;17.036;2024-03-17T08:01:03;3.25;;;1.38;;
22298;SDS011;11317;51.072;17.036;2024-03-17T08:03:31;5.03;;;1.40;;
22298;SDS011;11317;51.072;17.036;2024-03-17T08:05:59;4.95;;;1.10;;
22298;SDS011;11317;51.072;17.036;2024-03-17T08:08:26;5.60;;;1.02;;
22298;SDS011;11317;51.072;17.036;2024-03-17T08:10:52;4.13;;;1.13;;
22298;SDS011;11317;51.072;17.036;2024-03-17T08:13:19;4.47;;;1.10;;
22298;SDS011;11317;51.072;17.036;2024-03-17T08:15:46;3.22;;;1.13;;
22298;SDS011;11317;51.072;17.036;2024-03-17T08:18:20;5.03;;;0.95;;
22298;SDS011;11317;51.072;17.036;2024-03-17T08:20:46;4.22;;;1.23;;
22298;SDS011;11317;51.072;17.036;2024-03-17T08:23:12;4.13;;;1.35;;
22298;SDS011;11317;51.072;17.036;2024-03-17T08:25:38;5.72;;;1.88;;
22298;SDS011;11317;51.072;17.036;2024-03-17T08:28:04;5.20;;;1.30;;
22298;SDS011;11317;51.072;17.036;2024-03-17T08:30:33;4.68;;;1.13;;
22298;SDS011;11317;51.072;17.036;2024-03-17T08:32:59;3.40;;;1.65;;
22298;SDS011;11317;51.072;17.036;2024-03-17T08:35:26;4.38;;;1.10;;
22298;SDS011;11317;51.072;17.036;2024-03-17T08:37:52;5.97;;;1.10;;
22298;SDS011;11317;51.072;17.036;2024-03-17T08:40:21;5.53;;;1.70;;
22298;SDS011;11317;51.072;17.036;2024-03-17T08:42:48;3.97;;;1.30;;
22298;SDS011;11317;51.072;17.036;2024-03-17T08:45:14;3.50;;;0.90;;
22298;SDS011;11317;51.072;17.036;2024-03-17T08:47:41;5.95;;;1.10;;
22298;SDS011;11317;51.072;17.036;2024-03-17T08:50:07;2.25;;;0.70;;
22298;SDS011;11317;51.072;17.036;2024-03-17T08:52:37;5.07;;;0.85;;
22298;SDS011;11317;51.072;17.036;2024-03-17T08:55:03;3.47;;;1.33;;
22298;SDS011;11317;51.072;17.036;2024-03-17T08:57:35;1.67;;;0.90;;
22298;SDS011;11317;51.072;17.036;2024-03-17T09:00:01;2.60;;;0.90;;
22298;SDS011;11317;51.072;17.036;2024-03-17T09:02:27;3.30;;;1.05;;
22298;SDS011;11317;51.072;17.036;2024-03-17T09:04:53;5.38;;;1.27;;
22298;SDS011;11317;51.072;17.036;2024-03-17T09:07:19;1.02;;;0.93;;
22298;SDS011;11317;51.072;17.036;2024-03-17T09:09:48;5.05;;;1.38;;
22298;SDS011;11317;51.072;17.036;2024-03-17T09:12:14;6.15;;;1.13;;
22298;SDS011;11317;51.072;17.036;2024-03-17T09:14:41;5.93;;;1.20;;
22298;SDS011;11317;51.072;17.036;2024-03-17T09:17:07;3.67;;;0.80;;
22298;SDS011;11317;51.072;17.036;2024-03-17T09:19:34;6.65;;;1.83;;
22298;SDS011;11317;51.072;17.036;2024-03-17T09:21:59;4.00;;;1.60;;
22298;SDS011;11317;51.072;17.036;2024-03-17T09:24:26;5.72;;;1.58;;
22298;SDS011;11317;51.072;17.036;2024-03-17T09:26:52;2.42;;;0.95;;
22298;SDS011;11317;51.072;17.036;2024-03-17T09:29:18;3.60;;;0.95;;
22298;SDS011;11317;51.072;17.036;2024-03-17T09:31:44;4.95;;;1.02;;
22298;SDS011;11317;51.072;17.036;2024-03-17T09:34:10;2.35;;;0.80;;
22298;SDS011;11317;51.072;17.036;2024-03-17T09:36:36;3.90;;;0.95;;
22298;SDS011;11317;51.072;17.036;2024-03-17T09:39:02;3.20;;;0.77;;
22298;SDS011;11317;51.072;17.036;2024-03-17T09:41:30;4.25;;;0.93;;
22298;SDS011;11317;51.072;17.036;2024-03-17T09:43:57;2.67;;;1.30;;
22298;SDS011;11317;51.072;17.036;2024-03-17T09:46:24;6.68;;;1.48;;
22298;SDS011;11317;51.072;17.036;2024-03-17T09:48:52;3.00;;;0.68;;
22298;SDS011;11317;51.072;17.036;2024-03-17T09:51:22;2.15;;;0.65;;
22298;SDS011;11317;51.072;17.036;2024-03-17T09:53:49;3.65;;;0.90;;
22298;SDS011;11317;51.072;17.036;2024-03-17T09:56:16;3.45;;;0.80;;
22298;SDS011;11317;51.072;17.036;2024-03-17T09:58:44;1.48;;;0.60;;
22298;SDS011;11317;51.072;17.036;2024-03-17T10:01:10;2.67;;;0.88;;
22298;SDS011;11317;51.072;17.036;2024-03-17T10:03:44;3.03;;;1.00;;
22298;SDS011;11317;51.072;17.036;2024-03-17T10:06:14;5.07;;;1.05;;
22298;SDS011;11317;51.072;17.036;2024-03-17T10:09:01;4.03;;;0.70;;
22298;SDS011;11317;51.072;17.036;2024-03-17T10:11:35;3.70;;;0.65;;
22298;SDS011;11317;51.072;17.036;2024-03-17T10:14:02;3.05;;;0.73;;
22298;SDS011;11317;51.072;17.036;2024-03-17T10:16:34;5.55;;;1.08;;
22298;SDS011;11317;51.072;17.036;2024-03-17T10:19:06;2.78;;;1.02;;
22298;SDS011;11317;51.072;17.036;2024-03-17T10:21:36;4.13;;;1.02;;
22298;SDS011;11317;51.072;17.036;2024-03-17T10:24:24;2.33;;;0.77;;
22298;SDS011;11317;51.072;17.036;2024-03-17T10:29:26;3.97;;;1.02;;
22298;SDS011;11317;51.072;17.036;2024-03-17T10:32:04;3.83;;;0.98;;
22298;SDS011;11317;51.072;17.036;2024-03-17T10:34:38;4.72;;;1.08;;
22298;SDS011;11317;51.072;17.036;2024-03-17T10:37:14;1.70;;;0.70;;
22298;SDS011;11317;51.072;17.036;2024-03-17T10:39:45;5.60;;;1.08;;
22298;SDS011;11317;51.072;17.036;2024-03-17T10:42:14;1.73;;;0.82;;
22298;SDS011;11317;51.072;17.036;2024-03-17T10:45:01;7.50;;;1.05;;
22298;SDS011;11317;51.072;17.036;2024-03-17T10:47:28;3.67;;;0.63;;
22298;SDS011;11317;51.072;17.036;2024-03-17T10:49:55;3.67;;;0.80;;
22298;SDS011;11317;51.072;17.036;2024-03-17T10:52:21;2.38;;;0.60;;
22298;SDS011;11317;51.072;17.036;2024-03-17T10:54:51;3.42;;;0.82;;
22298;SDS011;11317;51.072;17.036;2024-03-17T11:00:00;1.70;;;0.63;;
22298;SDS011;11317;51.072;17.036;2024-03-17T11:02:30;3.33;;;0.68;;
22298;SDS011;11317;51.072;17.036;2024-03-17T11:07:38;3.72;;;0.60;;
22298;SDS011;11317;51.072;17.036;2024-03-17T11:10:14;3.35;;;0.85;;
22298;SDS011;11317;51.072;17.036;2024-03-17T11:17:55;2.25;;;0.65;;
22298;SDS011;11317;51.072;17.036;2024-03-17T11:20:55;3.13;;;0.57;;
22298;SDS011;11317;51.072;17.036;2024-03-17T11:23:28;3.28;;;1.30;;
22298;SDS011;11317;51.072;17.036;2024-03-17T11:25:55;3.50;;;1.15;;
22298;SDS011;11317;51.072;17.036;2024-03-17T11:31:34;1.35;;;0.63;;
22298;SDS011;11317;51.072;17.036;2024-03-17T11:36:30;2.90;;;0.77;;
22298;SDS011;11317;51.072;17.036;2024-03-17T11:39:09;4.75;;;1.02;;
22298;SDS011;11317;51.072;17.036;2024-03-17T11:41:52;3.83;;;0.65;;
22298;SDS011;11317;51.072;17.036;2024-03-17T11:52:05;4.53;;;1.05;;
22298;SDS011;11317;51.072;17.036;2024-03-17T11:54:37;1.98;;;0.80;;
22298;SDS011;11317;51.072;17.036;2024-03-17T11:57:14;1.13;;;0.70;;
22298;SDS011;11317;51.072;17.036;2024-03-17T11:59:51;3.85;;;0.70;;
22298;SDS011;11317;51.072;17.036;2024-03-17T12:02:25;4.50;;;0.98;;
22298;SDS011;11317;51.072;17.036;2024-03-17T12:04:52;2.92;;;1.15;;
22298;SDS011;11317;51.072;17.036;2024-03-17T12:07:21;4.88;;;1.02;;
22298;SDS011;11317;51.072;17.036;2024-03-17T12:09:48;5.82;;;1.38;;
22298;SDS011;11317;51.072;17.036;2024-03-17T12:12:25;4.97;;;1.10;;
22298;SDS011;11317;51.072;17.036;2024-03-17T12:15:02;3.95;;;0.80;;
22298;SDS011;11317;51.072;17.036;2024-03-17T12:17:30;4.53;;;1.08;;
22298;SDS011;11317;51.072;17.036;2024-03-17T12:19:57;2.90;;;1.08;;
22298;SDS011;11317;51.072;17.036;2024-03-17T12:22:25;1.67;;;0.80;;
22298;SDS011;11317;51.072;17.036;2024-03-17T12:24:52;3.55;;;0.93;;
22298;SDS011;11317;51.072;17.036;2024-03-17T12:27:23;3.65;;;1.00;;
22298;SDS011;11317;51.072;17.036;2024-03-17T12:29:53;5.85;;;1.13;;
22298;SDS011;11317;51.072;17.036;2024-03-17T12:32:20;6.07;;;0.95;;
22298;SDS011;11317;51.072;17.036;2024-03-17T12:34:49;4.38;;;0.88;;
22298;SDS011;11317;51.072;17.036;2024-03-17T12:37:26;2.70;;;0.98;;
22298;SDS011;11317;51.072;17.036;2024-03-17T12:40:01;4.13;;;1.10;;
22298;SDS011;11317;51.072;17.036;2024-03-17T12:42:28;2.92;;;0.95;;
22298;SDS011;11317;51.072;17.036;2024-03-17T12:44:57;3.97;;;1.05;;
22298;SDS011;11317;51.072;17.036;2024-03-17T12:47:27;1.65;;;0.82;;
22298;SDS011;11317;51.072;17.036;2024-03-17T12:49:58;3.78;;;1.00;;
22298;SDS011;11317;51.072;17.036;2024-03-17T12:52:25;3.67;;;1.05;;
22298;SDS011;11317;51.072;17.036;2024-03-17T12:55:02;3.22;;;0.98;;
22298;SDS011;11317;51.072;17.036;2024-03-17T12:58:04;5.10;;;1.20;;
22298;SDS011;11317;51.072;17.036;2024-03-17T13:01:02;5.55;;;1.20;;
22298;SDS011;11317;51.072;17.036;2024-03-17T13:03:33;1.88;;;1.10;;
22298;SDS011;11317;51.072;17.036;2024-03-17T13:06:01;1.55;;;0.82;;
22298;SDS011;11317;51.072;17.036;2024-03-17T13:08:28;3.88;;;0.82;;
22298;SDS011;11317;51.072;17.036;2024-03-17T13:10:54;4.00;;;1.05;;
22298;SDS011;11317;51.072;17.036;2024-03-17T13:13:20;3.88;;;1.20;;
22298;SDS011;11317;51.072;17.036;2024-03-17T13:15:46;1.17;;;0.70;;
22298;SDS011;11317;51.072;17.036;2024-03-17T13:18:19;4.07;;;0.80;;
22298;SDS011;11317;51.072;17.036;2024-03-17T13:20:46;3.05;;;0.82;;
22298;SDS011;11317;51.072;17.036;2024-03-17T13:23:14;4.47;;;0.73;;
22298;SDS011;11317;51.072;17.036;2024-03-17T13:25:40;4.07;;;0.85;;
22298;SDS011;11317;51.072;17.036;2024-03-17T13:28:08;1.75;;;0.98;;
22298;SDS011;11317;51.072;17.036;2024-03-17T13:30:35;5.55;;;1.00;;
22298;SDS011;11317;51.072;17.036;2024-03-17T13:33:02;1.73;;;0.85;;
22298;SDS011;11317;51.072;17.036;2024-03-17T13:35:33;2.92;;;0.98;;
22298;SDS011;11317;51.072;17.036;2024-03-17T13:38:03;3.30;;;0.68;;
22298;SDS011;11317;51.072;17.036;2024-03-17T13:40:31;5.05;;;1.00;;
22298;SDS011;11317;51.072;17.036;2024-03-17T13:42:58;3.65;;;1.00;;
22298;SDS011;11317;51.072;17.036;2024-03-17T13:45:26;3.60;;;0.70;;
22298;SDS011;11317;51.072;17.036;2024-03-17T13:50:21;0.93;;;0.63;;
22298;SDS011;11317;51.072;17.036;2024-03-17T13:52:47;3.58;;;0.82;;
22298;SDS011;11317;51.072;17.036;2024-03-17T13:57:44;2.13;;;0.95;;
22298;SDS011;11317;51.072;17.036;2024-03-17T14:00:11;4.22;;;1.13;;
22298;SDS011;11317;51.072;17.036;2024-03-17T14:02:44;2.47;;;0.77;;
22298;SDS011;11317;51.072;17.036;2024-03-17T14:05:14;1.75;;;0.93;;
22298;SDS011;11317;51.072;17.036;2024-03-17T14:07:41;1.02;;;0.68;;
22298;SDS011;11317;51.072;17.036;2024-03-17T14:10:08;3.65;;;1.20;;
22298;SDS011;11317;51.072;17.036;2024-03-17T14:12:35;2.90;;;0.90;;
22298;SDS011;11317;51.072;17.036;2024-03-17T14:15:03;4.35;;;0.75;;
22298;SDS011;11317;51.072;17.036;2024-03-17T14:17:32;6.53;;;1.13;;
22298;SDS011;11317;51.072;17.036;2024-03-17T14:19:58;5.18;;;1.17;;
22298;SDS011;11317;51.072;17.036;2024-03-17T14:22:24;3.05;;;1.10;;
22298;SDS011;11317;51.072;17.036;2024-03-17T14:24:51;4.32;;;1.13;;
22298;SDS011;11317;51.072;17.036;2024-03-17T14:27:17;3.85;;;0.73;;
22298;SDS011;11317;51.072;17.036;2024-03-17T14:29:43;5.47;;;1.35;;
22298;SDS011;11317;51.072;17.036;2024-03-17T14:32:09;1.75;;;0.88;;
22298;SDS011;11317;51.072;17.036;2024-03-17T14:34:35;3.53;;;1.02;;
22298;SDS011;11317;51.072;17.036;2024-03-17T14:37:03;1.35;;;0.93;;
22298;SDS011;11317;51.072;17.036;2024-03-17T14:39:29;3.92;;;0.88;;
22298;SDS011;11317;51.072;17.036;2024-03-17T14:41:56;3.40;;;0.98;;
22298;SDS011;11317;51.072;17.036;2024-03-17T14:44:22;3.67;;;0.98;;
22298;SDS011;11317;51.072;17.036;2024-03-17T14:46:49;4.80;;;1.15;;
22298;SDS011;11317;51.072;17.036;2024-03-17T14:49:19;3.03;;;1.17;;
22298;SDS011;11317;51.072;17.036;2024-03-17T14:51:46;1.52;;;1.13;;
22298;SDS011;11317;51.072;17.036;2024-03-17T14:54:12;3.72;;;0.77;;
22298;SDS011;11317;51.072;17.036;2024-03-17T14:56:39;0.93;;;0.70;;
22298;SDS011;11317;51.072;17.036;2024-03-17T14:59:08;2.38;;;0.70;;
22298;SDS011;11317;51.072;17.036;2024-03-17T15:01:34;1.33;;;0.80;;
22298;SDS011;11317;51.072;17.036;2024-03-17T15:04:00;3.95;;;0.90;;
22298;SDS011;11317;51.072;17.036;2024-03-17T15:06:27;2.28;;;0.65;;
22298;SDS011;11317;51.072;17.036;2024-03-17T15:08:53;3.60;;;1.92;;
22298;SDS011;11317;51.072;17.036;2024-03-17T15:11:18;7.35;;;1.02;;
22298;SDS011;11317;51.072;17.036;2024-03-17T15:13:44;3.75;;;1.00;;